createdAt,value
2022-08-25T00:00:52.189Z,101821.67
2022-08-25T00:08:21.961Z,101818.24
2022-08-25T00:10:59.917Z,101812.15999999999
2022-08-25T00:13:22.533Z,101808.53
2022-08-25T00:15:51.977Z,101806.42
2022-08-25T00:18:21.998Z,101804.01000000001
2022-08-25T00:20:52.011Z,101802.94
2022-08-25T00:23:22.457Z,101804.21
2022-08-25T00:25:52.123Z,101807.14
2022-08-25T00:28:22.500Z,101808.74
2022-08-25T00:30:52.171Z,101806.84
2022-08-25T00:33:21.976Z,101805.24
2022-08-25T00:35:53.771Z,101804.39
2022-08-25T00:38:22.540Z,101805.46
2022-08-25T00:41:02.230Z,101805.64
2022-08-25T00:43:22.084Z,101807.98
2022-08-25T00:45:52.039Z,101810.61
2022-08-25T00:48:22.029Z,101810.96
2022-08-25T00:50:52.438Z,101810.65999999999
2022-08-25T00:58:25.294Z,101807.51000000001
2022-08-25T01:00:54.933Z,101808.01
2022-08-25T01:03:31.551Z,101807.06
2022-08-25T01:05:53.408Z,101809.22
2022-08-25T01:08:27.125Z,101804.75
2022-08-25T01:10:53.147Z,101803.39
2022-08-25T01:15:55.417Z,101799.05
2022-08-25T01:18:23.058Z,101798.97
2022-08-25T01:20:53.503Z,101797.74
2022-08-25T01:23:23.758Z,101795.15
2022-08-25T01:25:59.900Z,101794.96
2022-08-25T01:28:22.400Z,101792.69
2022-08-25T01:30:52.346Z,101797.02
2022-08-25T01:33:22.892Z,101795.43
2022-08-25T01:35:52.005Z,101790.77
2022-08-25T01:38:23.052Z,101793.59
2022-08-25T01:40:52.174Z,101797.2
2022-08-25T01:43:30.205Z,101795.89
2022-08-25T01:45:52.210Z,101796.23
2022-08-25T01:50:52.142Z,101790.42
2022-08-25T01:53:26.007Z,101787.59
2022-08-25T01:55:54.452Z,101781.95
2022-08-25T01:58:25.462Z,101778.47
2022-08-25T02:00:56.008Z,101782.79
2022-08-25T02:05:52.616Z,101774.95
2022-08-25T02:08:23.265Z,101771.88
2022-08-25T02:10:54.659Z,101765.76
2022-08-25T02:13:26.691Z,101762.77
2022-08-25T02:15:55.647Z,101761.56
2022-08-25T02:18:22.480Z,101762.97
2022-08-25T02:20:52.200Z,101764.20000000001
2022-08-25T02:23:22.123Z,101762.45
2022-08-25T02:25:52.174Z,101769.34999999999
2022-08-25T02:28:22.124Z,101767.28
2022-08-25T02:30:52.210Z,101762.86
2022-08-25T02:33:22.060Z,101764.08
2022-08-25T02:35:52.035Z,101762.85
2022-08-25T02:38:22.035Z,101763.14
2022-08-25T02:40:52.231Z,101765.36
2022-08-25T02:45:54.543Z,101767.85
2022-08-25T02:48:22.398Z,101769.23000000001
2022-08-25T02:50:52.288Z,101768.76999999999
2022-08-25T02:53:22.440Z,101772.61
2022-08-25T02:55:52.345Z,101767.28
2022-08-25T02:58:22.933Z,101767.39
2022-08-25T03:00:52.311Z,101763.76000000001
2022-08-25T03:03:22.124Z,101763.89
2022-08-25T03:05:52.198Z,101758.89
2022-08-25T03:08:22.632Z,101758.56
2022-08-25T03:10:52.189Z,101755.83
2022-08-25T03:13:22.483Z,101752.91
2022-08-25T03:15:52.071Z,101749.72
2022-08-25T03:18:22.179Z,101748.22
2022-08-25T03:20:52.273Z,101746.73
2022-08-25T03:23:22.263Z,101742.39
2022-08-25T03:26:02.813Z,101742.62999999999
2022-08-25T03:28:25.033Z,101739.72
2022-08-25T03:30:55.857Z,101742.46
2022-08-25T03:33:22.338Z,101740.81999999999
2022-08-25T03:35:52.239Z,101739.97
2022-08-25T03:38:22.623Z,101738.31
2022-08-25T03:40:52.726Z,101736.67
2022-08-25T03:43:22.411Z,101732.81
2022-08-25T03:45:52.286Z,101735.63
2022-08-25T03:48:22.067Z,101735.78
2022-08-25T03:50:53.748Z,101731.5
2022-08-25T03:55:52.171Z,101730.51000000001
2022-08-25T03:58:22.438Z,101724.19
2022-08-25T04:00:52.564Z,101720.62
2022-08-25T04:03:22.070Z,101716.58
2022-08-25T04:08:22.259Z,101711.73999999999
2022-08-25T04:10:52.299Z,101716.49
2022-08-25T04:13:22.138Z,101715.59
2022-08-25T04:15:52.050Z,101711.14
2022-08-25T04:18:22.056Z,101713.14
2022-08-25T04:21:01.196Z,101712.05
2022-08-25T04:23:22.065Z,101715.3
2022-08-25T04:25:52.043Z,101713.69
2022-08-25T04:28:22.122Z,101717.74
2022-08-25T04:30:52.557Z,101714.09999999999
2022-08-25T04:35:52.413Z,101710.39
2022-08-25T04:38:23.041Z,101702.45
2022-08-25T04:40:55.619Z,101702.15
2022-08-25T04:43:22.287Z,101701.51
2022-08-25T04:45:53.148Z,101700.53
2022-08-25T04:48:22.456Z,101702.78
2022-08-25T04:50:52.104Z,101700.45999999999
2022-08-25T04:53:22.223Z,101699.40000000001
2022-08-25T04:55:52.191Z,101700.41
2022-08-25T04:58:22.196Z,101698.55
2022-08-25T05:00:52.711Z,101703.68999999999
2022-08-25T05:03:22.062Z,101702.23
2022-08-25T05:05:52.098Z,101703.49
2022-08-25T05:08:23.187Z,101699.47
2022-08-25T05:10:53.593Z,101703.06
2022-08-25T05:13:23.237Z,101704.28
2022-08-25T05:15:53.579Z,101701.23
2022-08-25T05:18:24.493Z,101699.19
2022-08-25T05:20:53.439Z,101699.1
2022-08-25T05:23:23.385Z,101704.19
2022-08-25T05:25:53.288Z,101707.03
2022-08-25T05:28:22.221Z,101705.98999999999
2022-08-25T05:30:57.784Z,101708.90000000001
2022-08-25T05:33:22.076Z,101712.59
2022-08-25T05:35:52.485Z,101708.09000000001
2022-08-25T05:38:22.396Z,101711.7
2022-08-25T05:40:53.267Z,101707.7
2022-08-25T05:43:22.592Z,101706.41
2022-08-25T05:45:53.478Z,101712.64
2022-08-25T05:48:22.295Z,101712.03
2022-08-25T05:50:53.871Z,101715.01
2022-08-25T05:53:24.000Z,101713.28
2022-08-25T05:55:53.671Z,101711.41
2022-08-25T05:58:23.168Z,101708.4
2022-08-25T06:00:52.183Z,101706.62
2022-08-25T06:03:22.720Z,101710.58
2022-08-25T06:05:52.242Z,101711.58
2022-08-25T06:08:22.587Z,101705.88
2022-08-25T06:10:52.177Z,101708.89
2022-08-25T06:13:28.970Z,101705.55
2022-08-25T06:15:56.860Z,101703.72
2022-08-25T06:18:22.160Z,101706.31
2022-08-25T06:20:52.936Z,101708.69
2022-08-25T06:23:22.146Z,101711.25
2022-08-25T06:25:53.397Z,101710.24
2022-08-25T06:28:22.428Z,101705.9
2022-08-25T06:33:22.203Z,101710.31
2022-08-25T06:35:53.404Z,101711.0
2022-08-25T06:38:23.173Z,101708.13
2022-08-25T06:40:52.441Z,101714.28
2022-08-25T06:43:23.296Z,101714.36
2022-08-25T06:45:52.267Z,101718.48
2022-08-25T06:48:22.951Z,101722.68000000001
2022-08-25T06:50:52.249Z,101716.97
2022-08-25T06:53:22.283Z,101721.87
2022-08-25T06:55:55.324Z,101720.7
2022-08-25T06:58:22.172Z,101724.86
2022-08-25T07:00:53.771Z,101728.72
2022-08-25T07:05:55.569Z,101720.78
2022-08-25T07:08:22.309Z,101718.94
2022-08-25T07:10:52.249Z,101719.20999999999
2022-08-25T07:13:22.511Z,101724.61
2022-08-25T07:15:54.198Z,101721.51
2022-08-25T07:18:22.461Z,101717.78
2022-08-25T07:20:52.925Z,101715.9
2022-08-25T07:23:23.103Z,101714.22
2022-08-25T07:25:53.333Z,101720.73000000001
2022-08-25T07:28:23.331Z,101718.02
2022-08-25T07:30:52.315Z,101720.7
2022-08-25T07:33:22.129Z,101721.77
2022-08-25T07:35:52.263Z,101716.97
2022-08-25T07:38:22.627Z,101721.11
2022-08-25T07:41:00.875Z,101726.14
2022-08-25T07:43:22.195Z,101731.28
2022-08-25T07:45:52.424Z,101727.91
2022-08-25T07:48:22.493Z,101730.76999999999
2022-08-25T07:50:52.179Z,101735.19
2022-08-25T07:53:22.239Z,101736.89
2022-08-25T07:55:53.759Z,101732.44
2022-08-25T07:58:22.261Z,101732.97
2022-08-25T08:00:52.473Z,101732.15
2022-08-25T08:03:35.441Z,101726.95
2022-08-25T08:05:55.583Z,101728.41
2022-08-25T08:08:22.456Z,101729.02
2022-08-25T08:11:04.803Z,101729.92
2022-08-25T08:13:22.799Z,101724.23999999999
2022-08-25T08:15:52.414Z,101729.06
2022-08-25T08:18:22.306Z,101725.34000000001
2022-08-25T08:20:52.213Z,101718.34
2022-08-25T08:23:26.704Z,101720.62
2022-08-25T08:25:52.606Z,101716.81999999999
2022-08-25T08:28:26.725Z,101721.89
2022-08-25T08:30:53.996Z,101716.18999999999
2022-08-25T08:33:23.707Z,101719.17
2022-08-25T08:35:59.171Z,101715.91
2022-08-25T08:38:27.166Z,101714.48000000001
2022-08-25T08:41:12.480Z,101708.44
2022-08-25T08:43:23.363Z,101707.93
2022-08-25T08:45:53.211Z,101704.69
2022-08-25T08:48:41.684Z,101700.86
2022-08-25T08:51:04.142Z,101699.55
2022-08-25T08:53:28.687Z,101698.19
2022-08-25T08:55:56.360Z,101693.3
2022-08-25T08:58:27.737Z,101688.69
2022-08-25T09:00:55.011Z,101688.95
2022-08-25T09:03:35.125Z,101682.39
2022-08-25T09:08:22.719Z,101680.55
2022-08-25T09:11:00.333Z,101675.03
2022-08-25T09:13:35.621Z,101672.83
2022-08-25T09:16:10.334Z,101668.29000000001
2022-08-25T09:18:29.923Z,101666.4
2022-08-25T09:21:04.621Z,101660.20999999999
2022-08-25T09:23:32.818Z,101658.31
2022-08-25T09:25:59.637Z,101656.47
2022-08-25T09:28:30.674Z,101651.78
2022-08-25T09:30:58.709Z,101655.76999999999
2022-08-25T09:33:25.162Z,101652.92
2022-08-25T09:35:54.094Z,101649.3
2022-08-25T09:38:24.137Z,101648.6
2022-08-25T09:40:54.957Z,101645.04
2022-08-25T09:43:33.119Z,101642.16
2022-08-25T09:45:58.628Z,101638.59
2022-08-25T09:48:26.103Z,101641.42
2022-08-25T09:51:00.138Z,101631.56
2022-08-25T09:53:22.571Z,101633.08
2022-08-25T09:56:00.143Z,101632.05
2022-08-25T09:58:23.604Z,101628.49
2022-08-25T10:01:03.861Z,101626.39
2022-08-25T10:03:24.814Z,101622.43999999999
2022-08-25T10:06:04.061Z,101624.68000000001
2022-08-25T10:08:29.316Z,101617.44
2022-08-25T10:10:54.778Z,101608.87
2022-08-25T10:13:33.813Z,101615.58
2022-08-25T10:18:25.697Z,101613.19
2022-08-25T10:21:00.895Z,101610.24
2022-08-25T10:23:26.439Z,101610.37
2022-08-25T10:25:59.261Z,101611.36
2022-08-25T10:28:32.510Z,101610.29
2022-08-25T10:31:01.353Z,101603.52
2022-08-25T10:33:33.064Z,101597.56
2022-08-25T10:35:58.518Z,101596.98
2022-08-25T10:38:36.577Z,101603.27
2022-08-25T10:40:59.367Z,101598.11
2022-08-25T10:43:30.774Z,101589.17
2022-08-25T10:46:03.577Z,101592.58
2022-08-25T10:48:33.995Z,101578.03
2022-08-25T10:50:57.869Z,101583.2
2022-08-25T10:53:28.154Z,101579.28
2022-08-25T10:56:03.672Z,101578.03
2022-08-25T10:58:34.454Z,101570.76
2022-08-25T11:01:03.715Z,101565.72
2022-08-25T11:03:39.278Z,101563.62000000001
2022-08-25T11:05:57.186Z,101562.37
2022-08-25T11:08:33.345Z,101555.48999999999
2022-08-25T11:10:59.058Z,101553.42000000001
2022-08-25T11:13:32.416Z,101550.37999999999
2022-08-25T11:16:15.951Z,101556.32
2022-08-25T11:18:26.404Z,101551.64
2022-08-25T11:21:00.999Z,101548.15999999999
2022-08-25T11:23:26.551Z,101551.62
2022-08-25T11:25:58.141Z,101547.96
2022-08-25T11:28:30.133Z,101545.1
2022-08-25T11:30:56.765Z,101545.43
2022-08-25T11:33:24.468Z,101538.86
2022-08-25T11:35:57.516Z,101542.14
2022-08-25T11:38:36.873Z,101542.02
2022-08-25T11:41:11.021Z,101533.54000000001
2022-08-25T11:43:37.629Z,101538.12000000001
2022-08-25T11:46:03.399Z,101529.04999999999
2022-08-25T11:48:34.203Z,101528.49
2022-08-25T11:50:58.619Z,101529.49
2022-08-25T11:53:28.881Z,101536.15999999999
2022-08-25T11:55:55.107Z,101529.93000000001
2022-08-25T11:58:36.417Z,101526.56
2022-08-25T12:00:53.974Z,101519.05
2022-08-25T12:03:42.261Z,101515.98
2022-08-25T12:06:12.328Z,101520.98999999999
2022-08-25T12:08:42.311Z,101518.33
2022-08-25T12:10:56.612Z,101514.78
2022-08-25T12:13:33.672Z,101507.58
2022-08-25T12:15:57.863Z,101510.89
2022-08-25T12:18:46.030Z,101505.3
2022-08-25T12:21:11.834Z,101500.45
2022-08-25T12:23:27.686Z,101505.69
2022-08-25T12:25:57.890Z,101499.84
2022-08-25T12:28:36.251Z,101493.62999999999
2022-08-25T12:30:57.949Z,101494.14
2022-08-25T12:33:34.800Z,101491.95999999999
2022-08-25T12:38:29.505Z,101492.22
2022-08-25T12:40:59.711Z,101487.53
2022-08-25T12:43:25.774Z,101485.91
2022-08-25T12:45:55.346Z,101479.71
2022-08-25T12:48:42.154Z,101482.59000000001
2022-08-25T12:50:58.066Z,101486.27
2022-08-25T12:53:30.083Z,101480.82
2022-08-25T12:55:59.412Z,101479.22
2022-08-25T12:58:38.606Z,101474.1
2022-08-25T13:01:13.278Z,101471.48
2022-08-25T13:06:12.270Z,101472.04000000001
2022-08-25T13:08:46.702Z,101470.34
2022-08-25T13:10:57.303Z,101466.99
2022-08-25T13:13:38.859Z,101466.22
2022-08-25T13:16:01.803Z,101462.34
2022-08-25T13:18:26.056Z,101460.91
2022-08-25T13:21:00.673Z,101458.78
2022-08-25T13:23:26.240Z,101452.28
2022-08-25T13:25:53.419Z,101449.28
2022-08-25T13:28:28.425Z,101446.53
2022-08-25T13:30:58.664Z,101446.51
2022-08-25T13:33:22.862Z,101446.09
2022-08-25T13:36:05.294Z,101441.8
2022-08-25T13:38:22.408Z,101435.97
2022-08-25T13:41:01.872Z,101434.16
2022-08-25T13:43:27.675Z,101435.97
2022-08-25T13:45:52.452Z,101437.7
2022-08-25T13:48:34.059Z,101435.89
2022-08-25T13:51:07.477Z,101430.12999999999
2022-08-25T13:53:25.419Z,101430.05
2022-08-25T13:55:57.546Z,101431.96
2022-08-25T13:58:39.471Z,101425.5
2022-08-25T14:01:19.674Z,101425.56
2022-08-25T14:03:30.372Z,101421.51
2022-08-25T14:06:04.657Z,101416.88
2022-08-25T14:08:30.899Z,101420.09000000001
2022-08-25T14:11:04.501Z,101428.14
2022-08-25T14:13:31.361Z,101426.26000000001
2022-08-25T14:15:53.183Z,101419.96
2022-08-25T14:18:29.911Z,101418.72
2022-08-25T14:20:54.132Z,101413.64
2022-08-25T14:23:26.176Z,101413.56
2022-08-25T14:25:54.594Z,101414.9
2022-08-25T14:28:25.704Z,101414.45
2022-08-25T14:30:56.315Z,101416.38
2022-08-25T14:33:27.120Z,101409.56
2022-08-25T14:35:53.949Z,101403.85
2022-08-25T14:38:23.353Z,101406.31
2022-08-25T14:40:52.714Z,101404.44
2022-08-25T14:43:23.813Z,101406.09
2022-08-25T14:45:52.730Z,101400.06
2022-08-25T14:48:25.840Z,101394.05
2022-08-25T14:50:55.119Z,101395.48
2022-08-25T14:53:23.178Z,101392.19
2022-08-25T14:55:59.094Z,101388.75
2022-08-25T14:58:25.957Z,101383.25
2022-08-25T15:00:53.245Z,101385.26000000001
2022-08-25T15:03:28.707Z,101377.4
2022-08-25T15:05:52.399Z,101374.99
2022-08-25T15:08:33.392Z,101379.68
2022-08-25T15:10:52.589Z,101376.2
2022-08-25T15:13:26.400Z,101370.79
2022-08-25T15:15:53.272Z,101369.0
2022-08-25T15:18:23.082Z,101367.67
2022-08-25T15:20:52.487Z,101364.18
2022-08-25T15:23:22.606Z,101359.93999999999
2022-08-25T15:25:54.247Z,101359.2
2022-08-25T15:28:23.225Z,101360.97
2022-08-25T15:30:52.618Z,101356.17
2022-08-25T15:33:22.813Z,101353.63
2022-08-25T15:35:52.625Z,101352.11
2022-08-25T15:38:22.802Z,101349.0
2022-08-25T15:40:52.515Z,101346.47
2022-08-25T15:43:22.556Z,101346.41
2022-08-25T15:45:52.482Z,101346.93
2022-08-25T15:48:22.621Z,101347.53
2022-08-25T15:53:25.021Z,101346.75
2022-08-25T15:55:54.165Z,101349.42
2022-08-25T15:58:23.072Z,101343.76999999999
2022-08-25T16:00:56.109Z,101348.1
2022-08-25T16:03:22.516Z,101346.77
2022-08-25T16:05:53.076Z,101343.34
2022-08-25T16:13:22.759Z,101337.69
2022-08-25T16:18:23.285Z,101339.61
2022-08-25T16:20:52.969Z,101337.33
2022-08-25T16:23:22.521Z,101340.45999999999
2022-08-25T16:25:52.448Z,101337.67
2022-08-25T16:28:24.532Z,101338.61
2022-08-25T16:30:53.224Z,101337.39
2022-08-25T16:33:22.450Z,101333.14
2022-08-25T16:35:52.589Z,101334.17
2022-08-25T16:38:22.601Z,101331.64
2022-08-25T16:40:52.464Z,101329.71
2022-08-25T16:43:22.811Z,101326.03
2022-08-25T16:45:56.744Z,101326.59999999999
2022-08-25T16:48:22.449Z,101324.36
2022-08-25T16:50:52.580Z,101327.45
2022-08-25T16:53:32.630Z,101322.02
2022-08-25T16:58:22.755Z,101322.70999999999
2022-08-25T17:00:52.495Z,101322.09
2022-08-25T17:03:22.604Z,101320.88
2022-08-25T17:05:52.477Z,101317.98999999999
2022-08-25T17:08:30.570Z,101317.02
2022-08-25T17:10:52.545Z,101315.66
2022-08-25T17:13:22.480Z,101315.84
2022-08-25T17:15:52.759Z,101318.34
2022-08-25T17:18:22.581Z,101314.04
2022-08-25T17:20:57.708Z,101314.0
2022-08-25T17:23:22.490Z,101317.1
2022-08-25T17:25:52.916Z,101316.41
2022-08-25T17:28:23.453Z,101314.98
2022-08-25T17:30:53.419Z,101316.04999999999
2022-08-25T17:33:24.469Z,101314.11
2022-08-25T17:35:54.775Z,101314.26
2022-08-25T17:38:25.295Z,101314.59
2022-08-25T17:40:53.604Z,101318.95
2022-08-25T17:43:23.761Z,101321.69
2022-08-25T17:45:55.783Z,101322.75
2022-08-25T17:48:24.464Z,101324.75
2022-08-25T17:50:53.435Z,101327.12
2022-08-25T17:53:22.497Z,101325.11
2022-08-25T17:55:58.231Z,101321.03
2022-08-25T17:58:22.705Z,101320.89
2022-08-25T18:00:52.723Z,101318.06
2022-08-25T18:03:22.548Z,101319.73000000001
2022-08-25T18:05:52.783Z,101319.41
2022-08-25T18:08:32.170Z,101321.01
2022-08-25T18:10:52.742Z,101323.44
2022-08-25T18:13:22.951Z,101325.59
2022-08-25T18:15:52.554Z,101326.05
2022-08-25T18:18:24.256Z,101327.73999999999
2022-08-25T18:20:52.759Z,101327.58
2022-08-25T18:23:22.751Z,101328.16
2022-08-25T18:25:52.635Z,101327.48
2022-08-25T18:28:23.589Z,101327.0
2022-08-25T18:30:52.531Z,101329.8
2022-08-25T18:33:22.661Z,101329.88
2022-08-25T18:35:52.862Z,101330.40999999999
2022-08-25T18:38:32.643Z,101329.3
2022-08-25T18:40:55.548Z,101330.59
2022-08-25T18:43:22.770Z,101330.59
2022-08-25T18:45:53.973Z,101346.57999999999
2022-08-25T18:48:22.982Z,101352.29000000001
2022-08-25T18:50:53.370Z,101350.42
2022-08-25T18:53:30.606Z,101353.27
2022-08-25T18:55:53.517Z,101355.36
2022-08-25T18:58:23.991Z,101354.76
2022-08-25T19:00:52.929Z,101361.61
2022-08-25T19:03:22.817Z,101362.69
2022-08-25T19:05:57.680Z,101362.95
2022-08-25T19:08:22.742Z,101366.90999999999
2022-08-25T19:10:53.268Z,101364.20000000001
2022-08-25T19:13:23.070Z,101364.56
2022-08-25T19:15:53.649Z,101363.92
2022-08-25T19:18:28.891Z,101377.67
2022-08-25T19:20:52.637Z,101378.77
2022-08-25T19:23:22.687Z,101380.66
2022-08-25T19:25:52.810Z,101380.44
2022-08-25T19:28:22.574Z,101381.45
2022-08-25T19:30:53.207Z,101384.6
2022-08-25T19:33:42.101Z,101381.66
2022-08-25T19:35:53.119Z,101385.29999999999
2022-08-25T19:38:34.073Z,101388.39
2022-08-25T19:40:53.561Z,101395.62
2022-08-25T19:43:23.533Z,101397.34
2022-08-25T19:45:52.633Z,101401.62
2022-08-25T19:48:22.645Z,101395.78
2022-08-25T19:50:56.184Z,101397.36
2022-08-25T19:53:22.644Z,101392.22
2022-08-25T19:55:53.370Z,101393.86
2022-08-25T19:58:22.654Z,101396.57999999999
2022-08-25T20:00:52.861Z,101398.06999999999
2022-08-25T20:03:23.061Z,101407.79
2022-08-25T20:05:54.841Z,101411.45
2022-08-25T20:08:30.282Z,101414.43000000001
2022-08-25T20:10:52.583Z,101418.08
2022-08-25T20:13:22.829Z,101417.7
2022-08-25T20:15:52.886Z,101413.67
2022-08-25T20:20:52.714Z,101420.62
2022-08-25T20:23:32.591Z,101422.33
2022-08-25T20:25:53.081Z,101431.41
2022-08-25T20:28:22.979Z,101433.87
2022-08-25T20:30:52.828Z,101431.91
2022-08-25T20:33:23.469Z,101433.22
2022-08-25T20:35:53.236Z,101436.5
2022-08-25T20:40:52.700Z,101436.97
2022-08-25T20:43:22.638Z,101440.09
2022-08-25T20:45:59.466Z,101441.28
2022-08-25T20:48:23.044Z,101442.61
2022-08-25T20:50:57.704Z,101443.73000000001
2022-08-25T20:53:23.025Z,101443.16
2022-08-25T20:55:52.762Z,101447.85
2022-08-25T20:58:22.740Z,101451.15
2022-08-25T21:00:52.744Z,101451.44
2022-08-25T21:03:22.649Z,101453.52
2022-08-25T21:05:53.594Z,101450.42
2022-08-25T21:08:23.817Z,101451.87
2022-08-25T21:10:52.958Z,101453.45
2022-08-25T21:13:22.852Z,101457.64
2022-08-25T21:15:53.499Z,101457.56
2022-08-25T21:18:22.839Z,101459.1
2022-08-25T21:20:52.865Z,101458.91
2022-08-25T21:23:22.692Z,101461.65999999999
2022-08-25T21:25:52.636Z,101465.26
2022-08-25T21:28:23.034Z,101460.65
2022-08-25T21:33:22.913Z,101460.65999999999
2022-08-25T21:35:52.668Z,101464.69
2022-08-25T21:38:22.713Z,101460.29999999999
2022-08-25T21:40:52.976Z,101463.87
2022-08-25T21:43:23.308Z,101463.31
2022-08-25T21:45:52.687Z,101466.04
2022-08-25T21:48:22.718Z,101471.77
2022-08-25T21:51:02.885Z,101475.62000000001
2022-08-25T21:53:22.677Z,101481.09
2022-08-25T21:55:52.778Z,101479.54999999999
2022-08-25T21:58:22.903Z,101471.04000000001
2022-08-25T22:03:22.843Z,101467.17
2022-08-25T22:08:22.923Z,101468.97
2022-08-25T22:10:52.924Z,101468.04
2022-08-25T22:13:22.687Z,101472.63
2022-08-25T22:15:52.910Z,101470.14
2022-08-25T22:18:23.428Z,101473.41
2022-08-25T22:20:53.380Z,101462.75
2022-08-25T22:23:28.280Z,101460.16
2022-08-25T22:25:53.756Z,101466.35
2022-08-25T22:28:23.107Z,101467.11
2022-08-25T22:30:53.008Z,101468.3
2022-08-25T22:33:23.085Z,101469.34
2022-08-25T22:35:59.797Z,101471.56
2022-08-25T22:38:22.670Z,101473.38
2022-08-25T22:40:52.695Z,101472.39
2022-08-25T22:43:23.036Z,101476.34000000001
2022-08-25T22:45:59.293Z,101478.61
2022-08-25T22:50:52.854Z,101473.32
2022-08-25T22:53:23.267Z,101473.5
2022-08-25T22:55:52.620Z,101484.92
2022-08-25T23:00:53.010Z,101486.51999999999
2022-08-25T23:03:23.771Z,101483.58
2022-08-25T23:05:53.803Z,101482.11
2022-08-25T23:08:39.007Z,101482.43
2022-08-25T23:10:55.257Z,101486.6
2022-08-25T23:13:34.265Z,101489.81
2022-08-25T23:15:52.958Z,101487.28
2022-08-25T23:18:22.690Z,101488.34000000001
2022-08-25T23:23:23.491Z,101488.68
2022-08-25T23:25:54.155Z,101493.84
2022-08-25T23:28:22.829Z,101492.1
2022-08-25T23:33:23.049Z,101491.35
2022-08-25T23:35:57.340Z,101492.44
2022-08-25T23:38:22.693Z,101492.96
2022-08-25T23:40:53.532Z,101491.09
2022-08-25T23:43:23.156Z,101490.44
2022-08-25T23:45:52.713Z,101487.87
2022-08-25T23:48:22.883Z,101489.06
2022-08-25T23:50:54.110Z,101492.24
2022-08-25T23:53:23.449Z,101489.43000000001
2022-08-25T23:55:53.976Z,101488.36
2022-08-25T23:58:22.973Z,101483.06
